createdAt,value
2022-10-31T00:00:13.192Z,75.00
2022-10-31T00:01:13.522Z,74.90
2022-10-31T00:02:13.477Z,75.60
2022-10-31T00:03:13.430Z,75.50
2022-10-31T00:04:13.466Z,75.60
2022-10-31T00:05:13.411Z,75.40
2022-10-31T00:06:13.471Z,74.60
2022-10-31T00:07:13.526Z,74.50
2022-10-31T00:08:13.546Z,74.20
2022-10-31T00:09:13.597Z,74.00
2022-10-31T00:10:13.577Z,74.20
2022-10-31T00:11:13.597Z,74.80
2022-10-31T00:12:13.520Z,74.80
2022-10-31T00:13:13.480Z,74.40
2022-10-31T00:14:13.435Z,74.10
2022-10-31T00:15:13.303Z,74.30
2022-10-31T00:16:13.314Z,74.30
2022-10-31T00:17:13.397Z,74.20
2022-10-31T00:18:13.207Z,74.60
2022-10-31T00:19:13.248Z,74.40
2022-10-31T00:20:13.902Z,74.10
2022-10-31T00:21:12.884Z,73.40
2022-10-31T00:22:14.074Z,73.30
2022-10-31T00:23:13.145Z,73.40
2022-10-31T00:24:13.167Z,73.80
2022-10-31T00:25:12.959Z,74.20
2022-10-31T00:26:12.844Z,74.20
2022-10-31T00:27:13.771Z,74.00
2022-10-31T00:28:14.204Z,73.70
2022-10-31T00:29:13.345Z,73.80
2022-10-31T00:30:13.406Z,74.10
2022-10-31T00:31:13.383Z,74.50
2022-10-31T00:32:13.636Z,75.00
2022-10-31T00:33:13.672Z,74.40
2022-10-31T00:34:13.517Z,73.80
2022-10-31T00:35:13.396Z,73.90
2022-10-31T00:36:13.318Z,73.60
2022-10-31T00:37:13.487Z,74.20
2022-10-31T00:38:13.392Z,74.70
2022-10-31T00:39:13.312Z,74.70
2022-10-31T00:40:13.374Z,75.00
2022-10-31T00:41:13.444Z,74.50
2022-10-31T00:42:14.428Z,74.10
2022-10-31T00:43:13.314Z,73.90
2022-10-31T00:44:13.327Z,73.70
2022-10-31T00:45:13.507Z,73.60
2022-10-31T00:46:13.496Z,73.40
2022-10-31T00:47:13.407Z,72.80
2022-10-31T00:48:13.691Z,72.90
2022-10-31T00:49:13.969Z,72.90
2022-10-31T00:50:13.118Z,73.50
2022-10-31T00:51:13.169Z,73.20
2022-10-31T00:52:13.513Z,73.60
2022-10-31T00:53:13.657Z,73.40
2022-10-31T00:54:13.707Z,73.90
2022-10-31T00:55:13.628Z,74.10
2022-10-31T00:56:13.621Z,74.80
2022-10-31T00:57:13.619Z,75.00
2022-10-31T00:59:13.301Z,74.70
2022-10-31T01:00:13.385Z,74.60
2022-10-31T01:01:13.930Z,74.60
2022-10-31T01:02:13.292Z,74.30
2022-10-31T01:03:13.558Z,74.80
2022-10-31T01:04:13.782Z,75.30
2022-10-31T01:05:13.766Z,74.90
2022-10-31T01:06:14.148Z,74.80
2022-10-31T01:07:13.199Z,75.00
2022-10-31T01:08:13.309Z,75.30
2022-10-31T01:09:13.229Z,75.40
2022-10-31T01:10:13.114Z,75.70
2022-10-31T01:11:13.401Z,75.80
2022-10-31T01:12:13.438Z,75.10
2022-10-31T01:13:13.480Z,74.90
2022-10-31T01:14:13.419Z,75.10
2022-10-31T01:15:13.707Z,75.40
2022-10-31T01:16:13.694Z,76.10
2022-10-31T01:17:13.580Z,75.70
2022-10-31T01:18:13.467Z,75.70
2022-10-31T01:19:13.592Z,75.80
2022-10-31T01:20:13.599Z,75.50
2022-10-31T01:21:13.461Z,76.00
2022-10-31T01:22:13.376Z,76.50
2022-10-31T01:23:13.429Z,76.30
2022-10-31T01:24:13.311Z,76.40
2022-10-31T01:25:13.258Z,76.30
2022-10-31T01:26:13.068Z,76.10
2022-10-31T01:27:12.878Z,75.70
2022-10-31T01:28:14.001Z,76.00
2022-10-31T01:29:13.385Z,75.60
2022-10-31T01:30:13.392Z,75.50
2022-10-31T01:31:13.476Z,75.40
2022-10-31T01:32:13.366Z,75.40
2022-10-31T01:33:13.406Z,75.40
2022-10-31T01:34:13.427Z,75.40
2022-10-31T01:35:13.314Z,76.00
2022-10-31T01:36:13.481Z,76.20
2022-10-31T01:37:13.672Z,76.20
2022-10-31T01:38:13.804Z,76.70
2022-10-31T01:39:14.081Z,77.60
2022-10-31T01:40:13.212Z,78.10
2022-10-31T01:41:13.254Z,78.30
2022-10-31T01:42:13.273Z,78.50
2022-10-31T01:43:13.596Z,78.60
2022-10-31T01:44:13.677Z,78.60
2022-10-31T01:45:13.844Z,77.80
2022-10-31T01:46:13.975Z,77.70
2022-10-31T01:47:13.178Z,77.60
2022-10-31T01:48:13.345Z,77.90
2022-10-31T01:49:19.451Z,77.50
2022-10-31T01:50:13.371Z,78.00
2022-10-31T01:51:13.421Z,77.60
2022-10-31T01:52:13.370Z,77.90
2022-10-31T01:53:13.186Z,78.60
2022-10-31T01:54:13.466Z,77.80
2022-10-31T01:55:13.442Z,77.50
2022-10-31T01:56:13.606Z,77.40
2022-10-31T01:57:13.468Z,77.90
2022-10-31T01:58:13.752Z,78.20
2022-10-31T01:59:13.827Z,78.50
2022-10-31T02:00:13.696Z,78.10
2022-10-31T02:01:13.572Z,77.10
2022-10-31T02:02:13.945Z,76.30
2022-10-31T02:03:13.163Z,75.90
2022-10-31T02:04:13.367Z,76.40
2022-10-31T02:05:13.469Z,76.40
2022-10-31T02:06:13.411Z,77.30
2022-10-31T02:07:13.333Z,77.80
2022-10-31T02:08:13.258Z,78.20
2022-10-31T02:09:13.224Z,77.90
2022-10-31T02:10:13.199Z,77.50
2022-10-31T02:11:13.134Z,77.40
2022-10-31T02:12:13.105Z,77.50
2022-10-31T02:13:13.128Z,77.50
2022-10-31T02:14:13.191Z,77.10
2022-10-31T02:15:13.387Z,76.70
2022-10-31T02:16:13.302Z,76.50
2022-10-31T02:17:13.612Z,77.10
2022-10-31T02:18:13.849Z,77.20
2022-10-31T02:19:13.754Z,77.30
2022-10-31T02:20:13.678Z,77.70
2022-10-31T02:21:13.508Z,78.70
2022-10-31T02:22:13.610Z,78.70
2022-10-31T02:23:13.750Z,78.80
2022-10-31T02:24:13.629Z,79.50
2022-10-31T02:25:13.747Z,79.80
2022-10-31T02:26:13.724Z,80.40
2022-10-31T02:27:13.634Z,80.50
2022-10-31T02:28:13.967Z,80.20
2022-10-31T02:29:13.330Z,79.60
2022-10-31T02:30:13.272Z,79.80
2022-10-31T02:31:13.276Z,79.60
2022-10-31T02:32:13.149Z,79.30
2022-10-31T02:33:13.050Z,79.40
2022-10-31T02:34:13.113Z,79.70
2022-10-31T02:35:13.087Z,81.00
2022-10-31T02:36:13.066Z,81.20
2022-10-31T02:37:13.101Z,81.50
2022-10-31T02:38:13.115Z,80.80
2022-10-31T02:39:13.043Z,80.80
2022-10-31T02:40:13.059Z,81.50
2022-10-31T02:41:13.062Z,81.90
2022-10-31T02:42:13.400Z,82.10
2022-10-31T02:44:13.672Z,81.90
2022-10-31T02:45:13.572Z,82.60
2022-10-31T02:46:13.978Z,83.40
2022-10-31T02:47:13.049Z,83.30
2022-10-31T02:48:13.219Z,83.20
2022-10-31T02:49:13.238Z,83.00
2022-10-31T02:50:13.145Z,83.30
2022-10-31T02:51:13.431Z,83.70
2022-10-31T02:52:13.661Z,83.00
2022-10-31T02:53:13.801Z,83.10
2022-10-31T02:54:14.188Z,82.80
2022-10-31T02:55:13.180Z,83.80
2022-10-31T02:56:13.225Z,83.40
2022-10-31T02:57:13.048Z,83.30
2022-10-31T02:58:12.964Z,83.20
2022-10-31T02:59:13.211Z,83.40
2022-10-31T03:00:13.216Z,83.80
2022-10-31T03:01:13.253Z,84.30
2022-10-31T03:02:13.632Z,84.50
2022-10-31T03:03:13.985Z,84.60
2022-10-31T03:04:12.904Z,84.40
2022-10-31T03:05:12.808Z,84.50
2022-10-31T03:06:13.859Z,84.10
2022-10-31T03:07:13.721Z,83.80
2022-10-31T03:08:13.642Z,84.30
2022-10-31T03:09:13.478Z,85.00
2022-10-31T03:10:13.534Z,85.10
2022-10-31T03:11:14.145Z,85.00
2022-10-31T03:12:13.084Z,85.20
2022-10-31T03:13:13.082Z,85.70
2022-10-31T03:14:13.102Z,85.10
2022-10-31T03:15:13.138Z,84.80
2022-10-31T03:16:13.085Z,84.60
2022-10-31T03:17:13.046Z,84.20
2022-10-31T03:18:13.255Z,83.60
2022-10-31T03:19:13.049Z,83.70
2022-10-31T03:20:13.035Z,84.90
2022-10-31T03:21:12.994Z,85.30
2022-10-31T03:22:12.958Z,85.50
2022-10-31T03:23:13.063Z,85.70
2022-10-31T03:24:13.024Z,85.50
2022-10-31T03:25:12.960Z,85.20
2022-10-31T03:26:12.906Z,85.50
2022-10-31T03:27:12.841Z,86.00
2022-10-31T03:28:14.180Z,85.70
2022-10-31T03:29:13.572Z,85.10
2022-10-31T03:30:13.615Z,84.50
2022-10-31T03:31:13.619Z,83.80
2022-10-31T03:32:13.763Z,83.50
2022-10-31T03:33:13.652Z,83.70
2022-10-31T03:34:13.952Z,83.80
2022-10-31T03:35:12.867Z,84.20
2022-10-31T03:36:13.723Z,84.00
2022-10-31T03:37:14.369Z,83.90
2022-10-31T03:38:13.312Z,84.40
2022-10-31T03:39:13.231Z,85.20
2022-10-31T03:40:13.124Z,84.70
2022-10-31T03:41:13.100Z,84.20
2022-10-31T03:42:13.137Z,83.90
2022-10-31T03:43:13.064Z,83.80
2022-10-31T03:44:13.399Z,84.30
2022-10-31T03:45:13.381Z,85.10
2022-10-31T03:46:13.355Z,85.40
2022-10-31T03:47:13.241Z,85.50
2022-10-31T03:48:13.219Z,85.70
2022-10-31T03:49:13.017Z,86.50
2022-10-31T03:50:13.121Z,88.20
2022-10-31T03:51:13.139Z,88.90
2022-10-31T03:52:13.158Z,88.20
2022-10-31T03:53:13.039Z,87.60
2022-10-31T03:54:13.259Z,87.10
2022-10-31T03:55:13.242Z,87.00
2022-10-31T03:56:13.198Z,86.70
2022-10-31T03:57:13.109Z,86.70
2022-10-31T03:58:13.151Z,87.00
2022-10-31T03:59:13.181Z,87.20
2022-10-31T04:00:13.108Z,87.60
2022-10-31T04:01:13.374Z,87.00
2022-10-31T04:02:13.526Z,86.90
2022-10-31T04:03:13.854Z,86.90
2022-10-31T04:04:13.853Z,86.50
2022-10-31T04:05:13.729Z,86.40
2022-10-31T04:06:13.565Z,87.40
2022-10-31T04:07:13.520Z,88.00
2022-10-31T04:08:13.497Z,88.00
2022-10-31T04:09:13.453Z,87.80
2022-10-31T04:10:13.468Z,87.20
2022-10-31T04:11:13.443Z,87.50
2022-10-31T04:12:13.604Z,87.70
2022-10-31T04:13:13.659Z,87.90
2022-10-31T04:14:13.814Z,88.30
2022-10-31T04:15:13.722Z,88.80
2022-10-31T04:16:16.969Z,88.50
2022-10-31T04:17:13.463Z,88.20
2022-10-31T04:18:13.355Z,88.20
2022-10-31T04:19:13.484Z,87.90
2022-10-31T04:20:13.428Z,87.90
2022-10-31T04:21:13.682Z,88.40
2022-10-31T04:22:13.697Z,88.40
2022-10-31T04:23:14.749Z,88.10
2022-10-31T04:24:12.741Z,88.60
2022-10-31T04:25:14.034Z,88.70
2022-10-31T04:26:12.981Z,88.40
2022-10-31T04:27:13.853Z,88.80
2022-10-31T04:28:14.124Z,88.90
2022-10-31T04:29:13.354Z,89.40
2022-10-31T04:30:13.240Z,89.40
2022-10-31T04:31:13.502Z,89.60
2022-10-31T04:32:13.707Z,89.60
2022-10-31T04:33:13.687Z,89.20
2022-10-31T04:34:13.866Z,88.70
2022-10-31T04:35:13.881Z,89.30
2022-10-31T04:36:13.857Z,88.60
2022-10-31T04:37:13.742Z,88.70
2022-10-31T04:38:13.656Z,88.50
2022-10-31T04:39:13.776Z,88.70
2022-10-31T04:40:13.774Z,88.50
2022-10-31T04:41:13.670Z,88.90
2022-10-31T04:42:13.683Z,88.80
2022-10-31T04:43:13.818Z,88.60
2022-10-31T04:44:14.132Z,89.10
2022-10-31T04:45:15.586Z,89.40
2022-10-31T04:46:13.818Z,89.40
2022-10-31T04:47:13.732Z,89.70
2022-10-31T04:48:14.058Z,89.90
2022-10-31T04:49:13.172Z,89.40
2022-10-31T04:50:13.155Z,89.30
2022-10-31T04:51:13.228Z,89.20
2022-10-31T04:52:13.166Z,89.10
2022-10-31T04:53:13.139Z,89.10
2022-10-31T04:54:13.652Z,89.10
2022-10-31T04:55:13.848Z,89.50
2022-10-31T04:56:14.126Z,89.20
2022-10-31T04:57:13.139Z,88.50
2022-10-31T04:58:13.138Z,88.60
2022-10-31T04:59:13.045Z,88.20
2022-10-31T05:00:13.176Z,88.00
2022-10-31T05:01:13.301Z,87.60
2022-10-31T05:02:13.821Z,87.50
2022-10-31T05:03:12.932Z,87.30
2022-10-31T05:04:12.961Z,87.30
2022-10-31T05:05:12.870Z,87.00
2022-10-31T05:06:13.858Z,87.30
2022-10-31T05:07:14.119Z,87.60
2022-10-31T05:08:13.243Z,87.80
2022-10-31T05:09:13.575Z,88.00
2022-10-31T05:10:13.679Z,87.90
2022-10-31T05:11:13.688Z,87.70
2022-10-31T05:12:13.907Z,87.20
2022-10-31T05:13:13.086Z,87.30
2022-10-31T05:14:13.098Z,87.70
2022-10-31T05:15:13.087Z,88.00
2022-10-31T05:16:12.998Z,88.20
2022-10-31T05:17:12.939Z,88.30
2022-10-31T05:18:12.969Z,87.70
2022-10-31T05:19:12.965Z,87.20
2022-10-31T05:20:12.916Z,87.20
2022-10-31T05:21:12.858Z,87.00
2022-10-31T05:22:13.706Z,87.20
2022-10-31T05:23:14.015Z,87.70
2022-10-31T05:24:13.362Z,87.10
2022-10-31T05:25:13.437Z,86.60
2022-10-31T05:26:13.582Z,86.90
2022-10-31T05:27:14.910Z,87.40
2022-10-31T05:28:12.828Z,88.30
2022-10-31T05:29:13.854Z,88.30
2022-10-31T05:30:14.098Z,87.70
2022-10-31T05:31:13.290Z,87.50
2022-10-31T05:32:13.226Z,87.60
2022-10-31T05:33:13.399Z,87.10
2022-10-31T05:34:13.386Z,87.20
2022-10-31T05:35:13.527Z,86.90
2022-10-31T05:36:13.450Z,87.30
2022-10-31T05:37:13.651Z,87.70
2022-10-31T05:38:13.839Z,88.00
2022-10-31T05:39:13.852Z,88.10
2022-10-31T05:40:13.925Z,88.30
2022-10-31T05:41:12.967Z,87.90
2022-10-31T05:42:13.114Z,87.80
2022-10-31T05:43:13.502Z,87.60
2022-10-31T05:44:13.408Z,87.50
2022-10-31T05:45:14.045Z,87.40
2022-10-31T05:46:12.982Z,87.30
2022-10-31T05:47:12.958Z,87.30
2022-10-31T05:48:12.867Z,87.00
2022-10-31T05:49:14.158Z,86.80
2022-10-31T05:50:13.321Z,86.80
2022-10-31T05:51:13.515Z,87.20
2022-10-31T05:52:13.912Z,87.10
2022-10-31T05:53:12.820Z,87.30
2022-10-31T05:54:16.056Z,87.10
2022-10-31T05:55:13.219Z,87.10
2022-10-31T05:56:13.384Z,86.70
2022-10-31T05:57:13.248Z,87.10
2022-10-31T05:58:13.438Z,87.00
2022-10-31T05:59:13.456Z,87.10
2022-10-31T06:00:13.625Z,87.20
2022-10-31T06:01:13.807Z,87.30
2022-10-31T06:02:13.914Z,87.10
2022-10-31T06:03:12.968Z,87.10
2022-10-31T06:04:13.387Z,86.80
2022-10-31T06:05:13.439Z,86.70
2022-10-31T06:06:13.473Z,86.50
2022-10-31T06:07:13.836Z,86.60
2022-10-31T06:08:13.946Z,86.50
2022-10-31T06:09:13.124Z,86.60
2022-10-31T06:10:13.278Z,86.90
2022-10-31T06:11:13.218Z,86.60
2022-10-31T06:12:13.190Z,86.50
2022-10-31T06:13:13.372Z,86.70
2022-10-31T06:14:13.440Z,87.20
2022-10-31T06:15:13.421Z,87.10
2022-10-31T06:16:13.331Z,87.20
2022-10-31T06:17:13.352Z,87.30
2022-10-31T06:18:13.412Z,87.50
2022-10-31T06:19:13.585Z,87.40
2022-10-31T06:20:13.598Z,87.10
2022-10-31T06:21:16.332Z,87.80
2022-10-31T06:22:12.863Z,88.00
2022-10-31T06:23:14.087Z,88.10
2022-10-31T06:24:18.324Z,87.70
2022-10-31T06:25:13.554Z,87.60
2022-10-31T06:26:13.818Z,87.40
2022-10-31T06:27:13.839Z,87.60
2022-10-31T06:28:14.119Z,87.00
2022-10-31T06:29:18.475Z,86.70
2022-10-31T06:30:13.738Z,86.80
2022-10-31T06:31:14.067Z,86.80
2022-10-31T06:32:13.219Z,86.80
2022-10-31T06:33:13.373Z,86.60
2022-10-31T06:34:13.396Z,86.30
2022-10-31T06:35:13.463Z,86.30
2022-10-31T06:36:13.380Z,86.50
2022-10-31T06:37:13.509Z,86.60
2022-10-31T06:38:13.666Z,87.20
2022-10-31T06:39:13.508Z,87.40
2022-10-31T06:40:13.583Z,87.80
2022-10-31T06:41:13.607Z,87.60
2022-10-31T06:42:13.696Z,87.50
2022-10-31T06:43:13.915Z,87.20
2022-10-31T06:44:12.762Z,86.90
2022-10-31T06:45:13.688Z,86.90
2022-10-31T06:46:13.607Z,86.60
2022-10-31T06:47:13.576Z,86.20
2022-10-31T06:48:18.225Z,86.20
2022-10-31T06:49:14.128Z,86.20
2022-10-31T06:50:43.607Z,87.00
2022-10-31T06:51:13.819Z,87.10
2022-10-31T06:52:13.864Z,86.90
2022-10-31T06:53:14.076Z,87.00
2022-10-31T06:54:13.148Z,86.80
2022-10-31T06:55:13.215Z,86.80
2022-10-31T06:56:35.932Z,86.80
2022-10-31T06:57:13.151Z,87.00
2022-10-31T06:58:13.521Z,87.20
2022-10-31T06:59:13.676Z,87.30
2022-10-31T07:00:13.758Z,87.00
2022-10-31T07:01:14.375Z,86.80
2022-10-31T07:02:14.063Z,86.50
2022-10-31T07:03:13.488Z,86.10
2022-10-31T07:04:13.782Z,86.20
2022-10-31T07:05:13.718Z,85.90
2022-10-31T07:06:13.784Z,85.60
2022-10-31T07:07:40.073Z,85.00
2022-10-31T07:08:16.660Z,84.90
2022-10-31T07:09:13.597Z,84.70
2022-10-31T07:10:13.880Z,84.90
2022-10-31T07:11:13.861Z,85.40
2022-10-31T07:12:14.914Z,85.30
2022-10-31T07:13:12.846Z,85.20
2022-10-31T07:14:13.867Z,85.00
2022-10-31T07:15:13.824Z,85.00
2022-10-31T07:16:14.127Z,85.00
2022-10-31T07:17:13.233Z,84.80
2022-10-31T07:18:13.438Z,84.60
2022-10-31T07:19:13.437Z,84.40
2022-10-31T07:20:18.642Z,84.70
2022-10-31T07:21:13.816Z,84.50
2022-10-31T07:22:13.895Z,84.20
2022-10-31T07:23:12.826Z,84.40
2022-10-31T07:24:13.927Z,84.20
2022-10-31T07:25:13.129Z,84.10
2022-10-31T07:26:12.988Z,84.20
2022-10-31T07:27:12.968Z,84.30
2022-10-31T07:28:13.252Z,84.40
2022-10-31T07:29:13.497Z,84.20
2022-10-31T07:30:13.535Z,84.20
2022-10-31T07:31:13.480Z,84.20
2022-10-31T07:32:13.475Z,84.50
2022-10-31T07:33:13.369Z,84.70
2022-10-31T07:34:13.284Z,85.10
2022-10-31T07:35:13.196Z,85.00
2022-10-31T07:36:13.050Z,84.80
2022-10-31T07:37:12.956Z,84.70
2022-10-31T07:38:13.220Z,84.30
2022-10-31T07:39:13.440Z,84.10
2022-10-31T07:40:13.524Z,83.80
2022-10-31T07:41:13.366Z,83.70
2022-10-31T07:42:13.287Z,83.30
2022-10-31T07:43:14.469Z,83.40
2022-10-31T07:44:13.900Z,83.90
2022-10-31T07:45:12.692Z,84.20
2022-10-31T07:46:13.865Z,84.50
2022-10-31T07:47:13.932Z,84.70
2022-10-31T07:48:12.862Z,84.70
2022-10-31T07:49:14.071Z,84.80
2022-10-31T07:50:13.039Z,84.80
2022-10-31T07:51:13.102Z,83.90
2022-10-31T07:52:43.207Z,84.00
2022-10-31T07:53:13.217Z,84.00
2022-10-31T07:54:13.162Z,83.90
2022-10-31T07:55:13.020Z,83.90
2022-10-31T07:56:13.186Z,84.00
2022-10-31T07:57:13.062Z,83.50
2022-10-31T07:58:13.045Z,82.70
2022-10-31T07:59:13.362Z,82.90
2022-10-31T08:00:13.280Z,83.00
2022-10-31T08:02:13.286Z,83.50
2022-10-31T08:03:13.243Z,83.70
2022-10-31T08:04:13.262Z,84.00
2022-10-31T08:05:13.161Z,84.20
2022-10-31T08:06:13.420Z,84.20
2022-10-31T08:07:13.676Z,84.00
2022-10-31T08:08:13.905Z,83.40
2022-10-31T08:09:12.699Z,82.70
2022-10-31T08:10:23.775Z,82.30
2022-10-31T08:11:13.064Z,81.90
2022-10-31T08:12:13.185Z,81.70
2022-10-31T08:13:13.218Z,81.90
2022-10-31T08:14:13.135Z,81.60
2022-10-31T08:15:13.264Z,81.40
2022-10-31T08:16:13.482Z,81.40
2022-10-31T08:17:13.458Z,81.50
2022-10-31T08:18:19.970Z,81.70
2022-10-31T08:19:13.158Z,81.70
2022-10-31T08:20:13.490Z,81.20
2022-10-31T08:21:13.896Z,81.10
2022-10-31T08:22:12.984Z,81.00
2022-10-31T08:23:13.130Z,80.50
2022-10-31T08:24:13.174Z,80.60
2022-10-31T08:25:13.130Z,80.30
2022-10-31T08:26:13.450Z,79.60
2022-10-31T08:27:13.325Z,79.00
2022-10-31T08:28:13.284Z,78.70
2022-10-31T08:29:13.503Z,78.20
2022-10-31T08:30:13.381Z,78.00
2022-10-31T08:31:13.301Z,78.00
2022-10-31T08:32:13.709Z,78.20
2022-10-31T08:33:14.080Z,78.20
2022-10-31T08:34:12.992Z,77.40
2022-10-31T08:35:13.088Z,78.00
2022-10-31T08:36:13.088Z,78.70
2022-10-31T08:37:12.985Z,78.30
2022-10-31T08:38:12.911Z,77.80
2022-10-31T08:39:12.963Z,77.70
2022-10-31T08:40:13.005Z,76.80
2022-10-31T08:41:12.878Z,77.10
2022-10-31T08:42:14.185Z,76.60
2022-10-31T08:43:13.262Z,76.20
2022-10-31T08:44:13.630Z,75.60
2022-10-31T08:45:13.528Z,75.40
2022-10-31T08:46:13.665Z,75.30
2022-10-31T08:47:13.506Z,75.30
2022-10-31T08:48:13.769Z,74.90
2022-10-31T08:49:13.782Z,74.40
2022-10-31T08:50:13.635Z,73.60
2022-10-31T08:51:13.615Z,73.20
2022-10-31T08:52:14.605Z,73.10
2022-10-31T08:53:13.892Z,72.80
2022-10-31T08:54:12.835Z,72.80
2022-10-31T08:55:14.080Z,72.80
2022-10-31T08:56:12.968Z,72.50
2022-10-31T08:57:13.038Z,72.60
2022-10-31T08:58:13.314Z,72.30
2022-10-31T08:59:13.625Z,71.90
2022-10-31T09:00:13.573Z,71.90
2022-10-31T09:01:13.756Z,71.90
2022-10-31T09:02:14.234Z,72.30
2022-10-31T09:03:13.347Z,73.60
2022-10-31T09:04:13.252Z,73.30
2022-10-31T09:05:13.217Z,73.50
2022-10-31T09:06:13.448Z,74.40
2022-10-31T09:07:21.406Z,73.90
2022-10-31T09:08:16.700Z,73.10
2022-10-31T09:09:12.990Z,72.90
2022-10-31T09:10:13.122Z,72.80
2022-10-31T09:11:13.002Z,72.70
2022-10-31T09:12:13.055Z,72.70
2022-10-31T09:13:13.222Z,72.40
2022-10-31T09:14:13.305Z,72.40
2022-10-31T09:15:13.369Z,72.50
2022-10-31T09:16:13.374Z,72.10
2022-10-31T09:17:13.279Z,71.70
2022-10-31T09:18:13.187Z,73.30
2022-10-31T09:19:13.218Z,73.50
2022-10-31T09:20:13.055Z,74.50
2022-10-31T09:21:12.870Z,75.30
2022-10-31T09:22:13.785Z,75.10
2022-10-31T09:23:13.599Z,74.10
2022-10-31T09:24:13.794Z,73.60
2022-10-31T09:25:13.783Z,73.70
2022-10-31T09:26:13.923Z,74.60
2022-10-31T09:27:12.766Z,75.20
2022-10-31T09:28:13.798Z,75.50
2022-10-31T09:29:13.743Z,76.10
2022-10-31T09:30:13.604Z,75.70
2022-10-31T09:31:13.513Z,75.80
2022-10-31T09:32:13.690Z,74.70
2022-10-31T09:33:13.695Z,74.10
2022-10-31T09:34:13.783Z,73.90
2022-10-31T09:35:13.599Z,73.50
2022-10-31T09:36:13.500Z,72.20
2022-10-31T09:37:13.634Z,71.50
2022-10-31T09:39:13.507Z,69.00
2022-10-31T09:40:18.526Z,68.00
2022-10-31T09:41:15.349Z,66.70
2022-10-31T09:42:13.444Z,65.80
2022-10-31T09:43:13.321Z,63.40
2022-10-31T09:44:13.117Z,63.90
2022-10-31T09:45:12.993Z,64.00
2022-10-31T09:46:13.112Z,65.90
2022-10-31T09:47:14.805Z,65.80
2022-10-31T09:48:13.837Z,67.00
2022-10-31T09:49:13.960Z,68.40
2022-10-31T09:50:12.904Z,66.80
2022-10-31T09:51:12.797Z,66.50
2022-10-31T09:52:13.797Z,68.40
2022-10-31T09:53:13.832Z,69.60
2022-10-31T09:54:14.105Z,70.00
2022-10-31T09:55:13.087Z,69.90
2022-10-31T09:56:13.242Z,70.30
2022-10-31T09:57:13.629Z,69.20
2022-10-31T09:58:13.711Z,69.10
2022-10-31T09:59:13.612Z,68.90
2022-10-31T10:00:13.624Z,67.80
2022-10-31T10:01:13.569Z,67.00
2022-10-31T10:02:13.621Z,66.70
2022-10-31T10:03:14.014Z,65.70
2022-10-31T10:04:18.261Z,65.10
2022-10-31T10:05:13.768Z,64.10
2022-10-31T10:06:13.720Z,64.00
2022-10-31T10:07:14.009Z,65.00
2022-10-31T10:08:14.662Z,66.20
2022-10-31T10:09:13.563Z,67.70
2022-10-31T10:10:13.528Z,67.80
2022-10-31T10:11:13.743Z,66.30
2022-10-31T10:12:13.803Z,66.50
2022-10-31T10:13:14.162Z,66.90
2022-10-31T10:14:13.315Z,66.60
2022-10-31T10:15:13.251Z,67.10
2022-10-31T10:16:13.295Z,66.20
2022-10-31T10:17:13.134Z,65.20
2022-10-31T10:18:13.257Z,65.70
2022-10-31T10:19:13.173Z,66.20
2022-10-31T10:20:13.589Z,66.00
2022-10-31T10:21:14.153Z,66.40
2022-10-31T10:22:13.251Z,66.90
2022-10-31T10:23:13.545Z,67.40
2022-10-31T10:24:13.916Z,68.60
2022-10-31T10:25:12.800Z,69.40
2022-10-31T10:26:13.749Z,68.60
2022-10-31T10:27:16.780Z,68.30
2022-10-31T10:28:13.367Z,68.20
2022-10-31T10:29:13.461Z,66.80
2022-10-31T10:30:13.476Z,67.00
2022-10-31T10:31:13.344Z,67.60
2022-10-31T10:32:13.235Z,66.30
2022-10-31T10:33:13.074Z,65.10
2022-10-31T10:34:13.386Z,64.30
2022-10-31T10:35:13.252Z,63.80
2022-10-31T10:36:13.297Z,63.10
2022-10-31T10:37:13.197Z,62.30
2022-10-31T10:38:13.328Z,61.40
2022-10-31T10:39:13.201Z,61.80
2022-10-31T10:40:13.408Z,62.60
2022-10-31T10:41:13.359Z,63.20
2022-10-31T10:42:13.424Z,64.00
2022-10-31T10:43:13.485Z,64.20
2022-10-31T10:44:13.663Z,63.40
2022-10-31T10:45:13.715Z,62.90
2022-10-31T10:46:13.648Z,61.20
2022-10-31T10:47:13.825Z,61.10
2022-10-31T10:48:13.797Z,61.80
2022-10-31T10:49:13.684Z,61.20
2022-10-31T10:50:13.571Z,61.60
2022-10-31T10:51:25.635Z,61.00
2022-10-31T10:52:27.783Z,60.20
2022-10-31T10:53:13.471Z,59.20
2022-10-31T10:54:13.363Z,59.20
2022-10-31T10:55:13.272Z,60.90
2022-10-31T10:56:18.085Z,61.70
2022-10-31T10:57:13.604Z,61.50
2022-10-31T10:58:13.761Z,61.40
2022-10-31T10:59:14.059Z,60.60
2022-10-31T11:00:13.466Z,60.80
2022-10-31T11:02:13.674Z,60.30
2022-10-31T11:03:13.745Z,58.50
2022-10-31T11:04:13.848Z,56.60
2022-10-31T11:05:13.997Z,55.10
2022-10-31T11:06:12.875Z,57.30
2022-10-31T11:07:13.756Z,58.60
2022-10-31T11:08:13.878Z,60.10
2022-10-31T11:09:13.848Z,60.70
2022-10-31T11:10:13.793Z,62.70
2022-10-31T11:11:13.997Z,62.90
2022-10-31T11:12:13.109Z,62.50
2022-10-31T11:13:13.277Z,61.10
2022-10-31T11:14:13.512Z,60.80
2022-10-31T11:15:13.461Z,58.70
2022-10-31T11:16:13.333Z,58.00
2022-10-31T11:17:13.300Z,57.90
2022-10-31T11:18:13.303Z,57.80
2022-10-31T11:19:13.372Z,55.80
2022-10-31T11:20:16.372Z,53.90
2022-10-31T11:21:13.157Z,53.30
2022-10-31T11:22:13.053Z,55.50
2022-10-31T11:23:13.420Z,53.50
2022-10-31T11:24:13.444Z,52.40
2022-10-31T11:25:13.685Z,54.80
2022-10-31T11:26:13.552Z,54.80
2022-10-31T11:27:13.593Z,55.40
2022-10-31T11:28:13.570Z,53.80
2022-10-31T11:29:13.611Z,52.50
2022-10-31T11:30:13.516Z,51.90
2022-10-31T11:31:13.404Z,52.00
2022-10-31T11:32:13.725Z,53.30
2022-10-31T11:33:13.625Z,55.00
2022-10-31T11:34:13.487Z,56.20
2022-10-31T11:35:13.417Z,56.40
2022-10-31T11:36:13.593Z,54.60
2022-10-31T11:37:13.638Z,54.00
2022-10-31T11:38:13.609Z,53.50
2022-10-31T11:39:13.641Z,54.20
2022-10-31T11:40:13.482Z,54.70
2022-10-31T11:41:13.710Z,53.90
2022-10-31T11:42:13.882Z,53.50
2022-10-31T11:43:12.808Z,53.40
2022-10-31T11:44:14.107Z,54.20
2022-10-31T11:45:13.161Z,55.70
2022-10-31T11:46:13.130Z,54.20
2022-10-31T11:47:13.039Z,53.60
2022-10-31T11:48:13.064Z,54.70
2022-10-31T11:49:12.926Z,53.20
2022-10-31T11:50:12.852Z,52.20
2022-10-31T11:51:13.697Z,52.90
2022-10-31T11:52:13.751Z,53.40
2022-10-31T11:53:13.916Z,54.50
2022-10-31T11:54:12.959Z,54.80
2022-10-31T11:55:13.303Z,53.50
2022-10-31T11:56:13.658Z,53.00
2022-10-31T11:57:13.548Z,53.80
2022-10-31T11:58:13.566Z,53.80
2022-10-31T11:59:13.504Z,54.80
2022-10-31T12:00:13.487Z,53.90
2022-10-31T12:01:13.526Z,53.90
2022-10-31T12:02:13.688Z,53.80
2022-10-31T12:03:13.772Z,54.50
2022-10-31T12:04:13.754Z,54.40
2022-10-31T12:05:13.783Z,53.80
2022-10-31T12:06:13.790Z,53.00
2022-10-31T12:07:13.724Z,53.60
2022-10-31T12:08:13.651Z,54.80
2022-10-31T12:09:13.822Z,55.20
2022-10-31T12:10:13.745Z,54.60
2022-10-31T12:11:13.650Z,53.60
2022-10-31T12:12:13.669Z,53.70
2022-10-31T12:13:13.696Z,53.70
2022-10-31T12:14:18.837Z,55.00
2022-10-31T12:15:51.567Z,54.10
2022-10-31T12:16:13.626Z,53.70
2022-10-31T12:17:13.814Z,53.80
2022-10-31T12:18:13.946Z,54.30
2022-10-31T12:19:12.891Z,54.10
2022-10-31T12:20:13.010Z,53.90
2022-10-31T12:21:12.941Z,53.60
2022-10-31T12:22:13.174Z,54.10
2022-10-31T12:23:13.063Z,54.90
2022-10-31T12:24:13.022Z,54.40
2022-10-31T12:25:13.170Z,53.30
2022-10-31T12:26:13.067Z,53.00
2022-10-31T12:27:14.237Z,52.20
2022-10-31T12:28:13.124Z,53.30
2022-10-31T12:29:13.208Z,53.30
2022-10-31T12:30:13.439Z,54.00
2022-10-31T12:31:13.347Z,53.20
2022-10-31T12:33:15.001Z,53.10
2022-10-31T12:34:19.727Z,52.90
2022-10-31T12:35:13.596Z,51.90
2022-10-31T12:36:15.442Z,53.20
2022-10-31T12:37:12.880Z,52.30
2022-10-31T12:38:14.243Z,51.50
2022-10-31T12:39:13.185Z,52.20
2022-10-31T12:40:13.368Z,52.70
2022-10-31T12:41:13.556Z,52.90
2022-10-31T12:42:13.535Z,52.40
2022-10-31T12:43:14.698Z,52.10
2022-10-31T12:44:13.555Z,51.30
2022-10-31T12:45:13.466Z,51.10
2022-10-31T12:46:13.347Z,52.20
2022-10-31T12:47:13.455Z,53.00
2022-10-31T12:48:13.628Z,52.70
2022-10-31T12:49:13.585Z,53.20
2022-10-31T12:50:13.684Z,52.20
2022-10-31T12:51:13.888Z,52.10
2022-10-31T12:52:14.150Z,52.40
2022-10-31T12:53:13.408Z,52.10
2022-10-31T12:54:13.769Z,52.70
2022-10-31T12:55:13.887Z,52.10
2022-10-31T12:56:13.105Z,51.80
2022-10-31T12:57:13.091Z,52.20
2022-10-31T12:58:13.100Z,52.40